Time;durP1;ratioP1;P1;durP2;ratioP2;P2;SDS_P1;SDS_P2;PMS_P1;PMS_P2;Temp;Humidity;BMP_temperature;BMP_pressure;BME280_temperature;BME280_humidity;BME280_pressure;Samples;Min_cycle;Max_cycle;Signal;HPM_P1;HPM_P2
2021/07/01 00:00:41;;;;;;;3.17;1.80;;;;;;;10.11;100.00;93805.53;5134383;27;20440;-78
2021/07/01 00:03:08;;;;;;;2.70;1.70;;;;;;;10.08;100.00;93805.13;5116012;27;20232;-78
2021/07/01 00:05:34;;;;;;;2.23;1.60;;;;;;;10.02;100.00;93804.09;5134637;27;20204;-78
2021/07/01 00:08:01;;;;;;;2.03;1.50;;;;;;;9.99;100.00;93807.91;5134554;27;20209;-79
2021/07/01 00:10:28;;;;;;;4.80;2.00;;;;;;;10.05;100.00;93801.09;5133955;27;20593;-77
2021/07/01 00:12:55;;;;;;;2.87;1.73;;;;;;;9.99;100.00;93812.31;5134334;27;20201;-78
2021/07/01 00:15:24;;;;;;;2.43;1.73;;;;;;;9.97;100.00;93809.09;5134283;27;20199;-79
2021/07/01 00:17:51;;;;;;;3.87;1.60;;;;;;;9.96;100.00;93810.91;5134143;27;20220;-78
2021/07/01 00:20:18;;;;;;;2.90;1.90;;;;;;;10.05;100.00;93806.31;5133892;27;20782;-78
2021/07/01 00:22:47;;;;;;;2.90;1.60;;;;;;;10.03;100.00;93803.09;5133997;27;20201;-79
2021/07/01 00:25:14;;;;;;;2.90;1.90;;;;;;;10.00;100.00;93809.50;5133790;27;20203;-78
2021/07/01 00:27:42;;;;;;;3.83;2.33;;;;;;;10.05;100.00;93805.53;5133849;27;20285;-79
2021/07/01 00:30:11;;;;;;;1.53;1.43;;;;;;;10.05;100.00;93805.53;5134071;27;20208;-80
2021/07/01 00:32:38;;;;;;;2.93;1.30;;;;;;;10.06;100.00;93804.50;5133823;27;20652;-79
2021/07/01 00:35:06;;;;;;;2.20;1.33;;;;;;;10.04;100.00;93801.28;5132597;27;20651;-79
2021/07/01 00:37:33;;;;;;;2.90;1.77;;;;;;;10.06;100.00;93796.69;5113148;28;20197;-78
2021/07/01 00:40:00;;;;;;;3.13;1.73;;;;;;;10.06;100.00;93801.91;5113229;28;20210;-79
2021/07/01 00:42:26;;;;;;;2.17;1.67;;;;;;;10.05;100.00;93793.28;5113146;28;20710;-80
2021/07/01 00:44:54;;;;;;;2.38;1.42;;;;;;;10.11;100.00;93796.91;5115227;27;20920;-78
2021/07/01 00:47:21;;;;;;;2.57;1.67;;;;;;;10.11;100.00;93799.53;5133659;28;20200;-80
2021/07/01 00:49:48;;;;;;;2.80;1.43;;;;;;;10.12;100.00;93798.50;5133775;28;20201;-79
2021/07/01 00:52:14;;;;;;;1.67;1.40;;;;;;;10.19;100.00;93789.72;5133718;28;20682;-78
2021/07/01 00:54:42;;;;;;;2.17;1.20;;;;;;;10.25;100.00;93795.13;5133909;28;20201;-78
2021/07/01 00:57:09;;;;;;;1.93;1.40;;;;;;;10.19;100.00;93801.94;5136804;27;20651;-79
2021/07/01 00:59:37;;;;;;;2.00;1.30;;;;;;;10.18;100.00;93793.31;5137859;27;20228;-82
2021/07/01 01:02:07;;;;;;;2.43;1.20;;;;;;;10.20;100.00;93787.91;5137785;27;20200;-82
2021/07/01 01:04:33;;;;;;;4.10;2.07;;;;;;;10.18;100.00;93787.31;5137877;27;20593;-80
2021/07/01 01:07:00;;;;;;;2.57;1.80;;;;;;;10.21;100.00;93794.72;5137559;27;20241;-80
2021/07/01 01:09:26;;;;;;;2.20;1.40;;;;;;;10.23;100.00;93786.72;5137825;27;20204;-80
2021/07/01 01:11:53;;;;;;;1.47;1.10;;;;;;;10.28;100.00;93784.31;5137552;27;20764;-80
2021/07/01 01:14:19;;;;;;;2.80;1.50;;;;;;;10.30;100.00;93782.31;5137669;27;20201;-79
2021/07/01 01:16:46;;;;;;;4.83;1.40;;;;;;;10.28;100.00;93790.31;5137419;27;20207;-79
2021/07/01 01:19:13;;;;;;;2.50;1.50;;;;;;;10.27;100.00;93788.69;5137261;27;20224;-79
2021/07/01 01:21:46;;;;;;;2.67;1.70;;;;;;;10.26;100.00;93787.13;5137095;27;20268;-80
2021/07/01 01:24:12;;;;;;;3.33;2.03;;;;;;;10.29;100.00;93785.91;5137550;27;20197;-79
2021/07/01 01:26:38;;;;;;;2.20;1.70;;;;;;;10.27;100.00;93778.28;5137412;27;20203;-80
2021/07/01 01:29:05;;;;;;;3.63;1.80;;;;;;;10.26;100.00;93789.72;5137175;27;20235;-78
2021/07/01 01:31:32;;;;;;;2.13;1.70;;;;;;;10.26;100.00;93781.91;5137174;27;20201;-78
2021/07/01 01:33:59;;;;;;;4.47;1.60;;;;;;;10.25;100.00;93780.28;5137261;27;20224;-79
2021/07/01 01:36:26;;;;;;;2.20;1.30;;;;;;;10.28;100.00;93785.09;5137265;27;20283;-81
2021/07/01 01:38:54;;;;;;;2.90;1.50;;;;;;;10.34;100.00;93773.91;5137126;27;20231;-79
2021/07/01 01:41:22;;;;;;;2.83;1.40;;;;;;;10.35;100.00;93775.50;5136954;27;20551;-79
2021/07/01 01:43:49;;;;;;;5.70;1.50;;;;;;;10.39;100.00;93777.72;5136951;27;20243;-80
2021/07/01 01:46:15;;;;;;;2.07;1.43;;;;;;;10.40;100.00;93764.47;5136868;27;20200;-78
2021/07/01 01:48:42;;;;;;;2.27;1.50;;;;;;;10.43;100.00;93771.13;5137063;27;20204;-81
2021/07/01 01:51:09;;;;;;;1.70;1.50;;;;;;;10.45;100.00;93774.31;5137034;27;20197;-81
2021/07/01 01:53:35;;;;;;;1.93;1.47;;;;;;;10.36;100.00;93777.13;5136930;27;20257;-80
2021/07/01 01:56:03;;;;;;;1.90;1.50;;;;;;;10.38;100.00;93774.31;5136821;27;20566;-80
2021/07/01 01:58:30;;;;;;;3.43;1.60;;;;;;;10.38;100.00;93773.53;5136605;27;20310;-80
2021/07/01 02:00:56;;;;;;;1.90;1.50;;;;;;;10.39;100.00;93775.09;5136628;27;20204;-80
2021/07/01 02:03:22;;;;;;;1.60;1.20;;;;;;;10.36;100.00;93778.94;5136833;27;20193;-79
2021/07/01 02:05:49;;;;;;;2.13;1.60;;;;;;;10.36;100.00;93774.50;5136790;27;20193;-80
2021/07/01 02:08:15;;;;;;;1.97;1.50;;;;;;;10.41;100.00;93776.53;5135934;27;20208;-80
2021/07/01 02:10:42;;;;;;;2.37;1.50;;;;;;;10.36;100.00;93782.34;5136604;27;20203;-79
2021/07/01 02:13:11;;;;;;;1.90;1.60;;;;;;;10.37;100.00;93780.53;5135327;27;20931;-78
2021/07/01 02:15:38;;;;;;;2.60;1.70;;;;;;;10.31;100.00;93779.50;5136512;27;20647;-80
2021/07/01 02:18:05;;;;;;;1.90;1.40;;;;;;;10.35;100.00;93782.53;5136123;27;20197;-80
2021/07/01 02:20:31;;;;;;;2.37;1.53;;;;;;;10.34;100.00;93779.13;5136381;27;20208;-78
2021/07/01 02:22:57;;;;;;;2.70;1.60;;;;;;;10.42;100.00;93785.16;5136275;27;20203;-80
2021/07/01 02:25:24;;;;;;;2.33;1.50;;;;;;;10.48;100.00;93779.16;5136149;27;20201;-79
2021/07/01 02:27:50;;;;;;;2.20;1.60;;;;;;;10.43;100.00;93782.34;5135996;27;20229;-79
2021/07/01 02:30:19;;;;;;;2.37;1.70;;;;;;;10.44;100.00;93785.75;5136102;27;20201;-78
2021/07/01 02:32:46;;;;;;;2.87;1.90;;;;;;;10.43;100.00;93787.56;5135996;27;20291;-79
2021/07/01 02:35:13;;;;;;;3.23;2.10;;;;;;;10.39;100.00;93781.13;5136134;27;20205;-79
2021/07/01 02:37:41;;;;;;;1.67;1.33;;;;;;;10.44;100.00;93783.97;5135954;27;20683;-79
2021/07/01 02:40:12;;;;;;;2.00;1.60;;;;;;;10.52;100.00;93790.78;5136021;27;20695;-80
2021/07/01 02:42:39;;;;;;;2.20;1.80;;;;;;;10.56;100.00;93781.56;5135945;27;20203;-80
2021/07/01 02:45:07;;;;;;;2.93;1.97;;;;;;;10.56;100.00;93786.78;5135987;27;20193;-80
2021/07/01 02:47:34;;;;;;;3.27;2.10;;;;;;;10.62;100.00;93782.56;5135988;27;20196;-80
2021/07/01 02:50:01;;;;;;;2.87;1.90;;;;;;;10.60;100.00;93785.38;5135731;27;20204;-80
2021/07/01 02:52:27;;;;;;;3.47;1.90;;;;;;;10.56;100.00;93789.41;5135746;27;20201;-78
2021/07/01 02:54:54;;;;;;;4.40;1.93;;;;;;;10.56;100.00;93792.00;5135562;27;20204;-78
2021/07/01 02:57:20;;;;;;;2.70;1.90;;;;;;;10.57;100.00;93784.97;5134463;27;20200;-79
2021/07/01 02:59:47;;;;;;;2.73;1.90;;;;;;;10.55;100.00;93791.19;5135493;27;20227;-80
2021/07/01 03:02:13;;;;;;;2.40;1.70;;;;;;;10.57;100.00;93788.38;5135694;27;20192;-80
2021/07/01 03:04:41;;;;;;;2.60;1.90;;;;;;;10.59;100.00;93799.44;5135444;27;20348;-79
2021/07/01 03:07:08;;;;;;;4.20;2.23;;;;;;;10.59;100.00;93793.41;5135378;27;20197;-79
2021/07/01 03:09:34;;;;;;;3.57;2.13;;;;;;;10.55;100.00;93793.00;5135352;27;20196;-81
2021/07/01 03:12:00;;;;;;;3.37;2.30;;;;;;;10.57;100.00;93790.97;5135493;27;20204;-78
2021/07/01 03:14:27;;;;;;;5.17;2.10;;;;;;;10.59;100.00;93781.16;5135462;27;20203;-80
2021/07/01 03:16:53;;;;;;;3.43;2.03;;;;;;;10.58;100.00;93795.22;5135278;27;20201;-82
2021/07/01 03:19:20;;;;;;;3.87;2.60;;;;;;;10.60;100.00;93787.97;5134230;27;20233;-82
2021/07/01 03:21:47;;;;;;;3.90;2.70;;;;;;;10.51;100.00;93792.59;5135138;27;20613;-81
2021/07/01 03:24:14;;;;;;;3.53;2.57;;;;;;;10.50;100.00;93793.59;5134914;27;20605;-79
2021/07/01 03:26:40;;;;;;;3.60;2.40;;;;;;;10.55;100.00;93795.59;5134622;27;20201;-79
2021/07/01 03:29:08;;;;;;;9.87;3.07;;;;;;;10.61;100.00;93789.59;5135118;27;20197;-79
2021/07/01 03:31:35;;;;;;;7.20;2.63;;;;;;;10.65;100.00;93787.38;5135024;27;20193;-80
2021/07/01 03:34:01;;;;;;;4.07;2.83;;;;;;;10.65;100.00;93798.63;5134455;27;20197;-79
2021/07/01 03:36:27;;;;;;;5.20;3.00;;;;;;;10.63;100.00;93805.84;5134371;27;20441;-80
2021/07/01 03:38:56;;;;;;;3.83;2.50;;;;;;;10.59;100.00;93786.41;5134664;27;20220;-81
2021/07/01 03:41:22;;;;;;;6.77;2.70;;;;;;;10.59;100.00;93796.84;5134738;27;20204;-80
2021/07/01 03:43:51;;;;;;;4.20;2.67;;;;;;;10.61;100.00;93794.81;5134752;27;20201;-80
2021/07/01 03:46:18;;;;;;;5.53;3.17;;;;;;;10.60;100.00;93792.41;5134700;27;20236;-79
2021/07/01 03:48:44;;;;;;;3.83;2.60;;;;;;;10.61;100.00;93796.59;5134669;27;20205;-79
2021/07/01 03:51:11;;;;;;;5.50;2.53;;;;;;;10.64;100.00;93799.66;5116122;27;20291;-78
2021/07/01 03:53:37;;;;;;;5.20;3.10;;;;;;;10.60;100.00;93806.25;5134534;27;20724;-78
2021/07/01 03:56:05;;;;;;;3.50;2.60;;;;;;;10.56;100.00;93802.44;5134385;27;20197;-79
2021/07/01 03:58:32;;;;;;;4.43;2.70;;;;;;;10.53;100.00;93805.44;5134744;27;20192;-78
2021/07/01 04:00:58;;;;;;;5.63;3.00;;;;;;;10.55;100.00;93803.44;5134593;27;20246;-79
2021/07/01 04:03:25;;;;;;;5.03;2.77;;;;;;;10.58;100.00;93810.88;5134409;27;20209;-79
2021/07/01 04:05:51;;;;;;;7.03;3.07;;;;;;;10.60;100.00;93803.66;5134300;27;20242;-79
2021/07/01 04:08:17;;;;;;;4.67;3.10;;;;;;;10.63;100.00;93808.47;5134426;27;20544;-79
2021/07/01 04:10:44;;;;;;;5.80;2.83;;;;;;;10.66;100.00;93805.47;5134171;27;20682;-80
2021/07/01 04:13:12;;;;;;;4.53;3.00;;;;;;;10.73;100.00;93813.31;5134309;27;20651;-78
2021/07/01 04:15:39;;;;;;;4.80;3.00;;;;;;;10.79;100.00;93816.91;5134223;27;20253;-79
2021/07/01 04:18:10;;;;;;;4.80;3.40;;;;;;;10.84;100.00;93815.31;5134159;27;20543;-80
2021/07/01 04:20:36;;;;;;;5.40;3.23;;;;;;;10.77;100.00;93824.16;5134029;27;20228;-79
2021/07/01 04:23:03;;;;;;;4.77;2.60;;;;;;;10.70;100.00;93819.72;5134440;27;20546;-79
2021/07/01 04:25:29;;;;;;;7.23;2.97;;;;;;;10.73;100.00;93816.72;5134152;27;20204;-80
2021/07/01 04:27:55;;;;;;;4.17;2.73;;;;;;;10.71;100.00;93823.94;5134069;27;20228;-80
2021/07/01 04:30:23;;;;;;;4.37;2.97;;;;;;;10.79;100.00;93824.75;5133563;27;20220;-79
2021/07/01 04:32:50;;;;;;;7.87;3.27;;;;;;;10.78;100.00;93825.75;5133821;27;20205;-80
2021/07/01 04:35:16;;;;;;;5.90;2.87;;;;;;;10.75;100.00;93821.72;5133799;27;20205;-79
2021/07/01 04:37:43;;;;;;;8.70;3.47;;;;;;;10.80;100.00;93818.53;5133984;28;20221;-80
2021/07/01 04:40:10;;;;;;;5.60;3.37;;;;;;;10.79;100.00;93817.72;5133828;28;20705;-81
2021/07/01 04:42:37;;;;;;;4.93;2.90;;;;;;;10.81;100.00;93820.13;5133967;28;20207;-79
2021/07/01 04:45:05;;;;;;;6.03;3.50;;;;;;;10.89;100.00;93818.13;5133807;28;20228;-80
2021/07/01 04:47:33;;;;;;;5.87;3.40;;;;;;;10.91;100.00;93820.53;5133721;28;20197;-81
2021/07/01 04:49:59;;;;;;;6.93;3.50;;;;;;;10.93;100.00;93811.50;5133912;28;20205;-80
2021/07/01 04:52:27;;;;;;;8.70;3.37;;;;;;;10.96;100.00;93810.28;5133840;28;20249;-80
2021/07/01 04:54:53;;;;;;;6.10;3.30;;;;;;;10.98;100.00;93816.13;5133800;28;20200;-80
2021/07/01 04:57:20;;;;;;;4.83;3.30;;;;;;;10.97;100.00;93813.69;5133713;28;20537;-80
2021/07/01 04:59:46;;;;;;;5.67;3.00;;;;;;;10.99;100.00;93822.13;5133816;28;20228;-79
2021/07/01 05:02:14;;;;;;;8.00;3.57;;;;;;;10.97;100.00;93818.94;5133528;28;20204;-79
2021/07/01 05:04:42;;;;;;;5.47;3.57;;;;;;;11.03;100.00;93824.16;5133763;28;20196;-79
2021/07/01 05:07:08;;;;;;;6.33;3.87;;;;;;;11.04;100.00;93819.72;5133710;28;20200;-79
2021/07/01 05:09:34;;;;;;;4.53;3.30;;;;;;;11.08;100.00;93826.97;5133892;28;20249;-79
2021/07/01 05:12:01;;;;;;;5.77;3.63;;;;;;;11.04;100.00;93827.56;5133737;28;20201;-79
2021/07/01 05:14:27;;;;;;;5.33;3.30;;;;;;;11.00;100.00;93828.97;5133516;28;20201;-77
2021/07/01 05:16:54;;;;;;;9.67;3.70;;;;;;;10.99;100.00;93828.19;5133522;28;20203;-78
2021/07/01 05:19:20;;;;;;;6.47;3.97;;;;;;;11.02;100.00;93825.13;5133551;28;20231;-78
2021/07/01 05:21:48;;;;;;;7.00;4.17;;;;;;;10.98;100.00;93826.56;5133770;28;20200;-79
2021/07/01 05:24:14;;;;;;;6.63;4.00;;;;;;;10.95;100.00;93826.97;5133013;28;20204;-78
2021/07/01 05:26:41;;;;;;;7.07;4.13;;;;;;;11.00;100.00;93823.75;5133441;28;20193;-76
2021/07/01 05:29:07;;;;;;;6.57;3.90;;;;;;;11.01;100.00;93830.59;5133311;28;20209;-78
2021/07/01 05:31:34;;;;;;;5.87;3.90;;;;;;;10.96;100.00;93833.81;5133293;28;20193;-79
2021/07/01 05:34:01;;;;;;;6.83;3.97;;;;;;;10.92;100.00;93833.41;5133502;28;20197;-78
2021/07/01 05:36:27;;;;;;;9.03;4.73;;;;;;;10.92;100.00;93837.81;5133424;28;20211;-80
2021/07/01 05:38:55;;;;;;;8.93;4.73;;;;;;;10.97;100.00;93832.78;5133491;28;20201;-78
2021/07/01 05:41:21;;;;;;;12.77;5.10;;;;;;;10.99;100.00;93843.84;5133338;28;20232;-79
2021/07/01 05:43:48;;;;;;;7.33;4.70;;;;;;;10.97;100.00;93839.81;5135501;27;20605;-78
2021/07/01 05:46:14;;;;;;;11.17;5.43;;;;;;;10.85;100.00;93837.00;5137157;27;20200;-77
2021/07/01 05:48:42;;;;;;;10.20;4.80;;;;;;;10.92;100.00;93838.63;5137047;27;20205;-79
2021/07/01 05:51:10;;;;;;;11.33;5.33;;;;;;;11.01;100.00;93831.38;5136987;27;20197;-80
2021/07/01 05:53:42;;;;;;;10.63;5.83;;;;;;;11.11;100.00;93837.00;5136768;27;20659;-78
2021/07/01 05:56:10;;;;;;;9.60;4.97;;;;;;;11.29;100.00;93839.00;5136813;27;20690;-78
2021/07/01 05:58:36;;;;;;;9.70;5.40;;;;;;;11.34;100.00;93841.03;5136623;27;20204;-77
2021/07/01 06:01:03;;;;;;;9.83;5.20;;;;;;;11.38;100.00;93839.59;5136755;27;20625;-78
2021/07/01 06:03:31;;;;;;;8.70;5.07;;;;;;;11.48;100.00;93841.78;5136695;27;20196;-78
2021/07/01 06:06:02;;;;;;;8.90;5.23;;;;;;;11.58;100.00;93834.31;5136512;27;20203;-77
2021/07/01 06:08:32;;;;;;;7.57;4.97;;;;;;;11.53;100.00;93841.19;5136225;27;20197;-77
2021/07/01 06:11:02;;;;;;;10.17;5.30;;;;;;;11.61;100.00;93846.19;5136691;27;20712;-79
2021/07/01 06:13:31;;;;;;;8.43;5.00;;;;;;;11.78;100.00;93830.84;5136358;27;20197;-78
2021/07/01 06:15:58;;;;;;;8.43;4.53;;;;;;;11.83;100.00;93833.66;5136546;27;20224;-78
2021/07/01 06:18:24;;;;;;;7.40;4.80;;;;;;;12.03;100.00;93833.59;5136432;27;20674;-79
2021/07/01 06:20:51;;;;;;;9.43;3.87;;;;;;;12.00;100.00;93831.41;5136260;27;20232;-78
2021/07/01 06:23:18;;;;;;;7.60;4.40;;;;;;;12.06;100.00;93840.22;5136228;27;20201;-77
2021/07/01 06:25:47;;;;;;;7.77;3.67;;;;;;;11.90;100.00;93831.81;5136129;27;20567;-79
2021/07/01 06:28:13;;;;;;;8.83;4.03;;;;;;;11.96;100.00;93838.06;5135972;27;20224;-79
2021/07/01 06:30:44;;;;;;;7.10;4.25;;;;;;;11.96;100.00;93835.47;5135726;27;20445;-80
2021/07/01 06:33:12;;;;;;;12.37;4.53;;;;;;;12.10;100.00;93841.44;5136227;27;20201;-80
2021/07/01 06:35:40;;;;;;;6.37;3.93;;;;;;;12.28;100.00;93838.13;5136088;27;20201;-78
2021/07/01 06:38:10;;;;;;;6.80;3.93;;;;;;;12.38;100.00;93841.09;5135990;27;20208;-79
2021/07/01 06:40:37;;;;;;;8.83;3.43;;;;;;;12.28;100.00;93840.75;5135814;27;20721;-78
2021/07/01 06:43:04;;;;;;;6.67;3.50;;;;;;;12.32;100.00;93836.69;5135937;27;20242;-77
2021/07/01 06:45:33;;;;;;;6.73;3.53;;;;;;;12.47;100.00;93833.78;5135764;27;20201;-78
2021/07/01 06:48:03;;;;;;;8.33;3.33;;;;;;;12.49;100.00;93839.63;5135761;27;20227;-77
2021/07/01 06:50:30;;;;;;;7.60;3.80;;;;;;;12.63;100.00;93832.50;5135648;27;20200;-77
2021/07/01 06:52:59;;;;;;;6.27;3.80;;;;;;;12.82;100.00;93834.16;5135793;27;20205;-78
2021/07/01 06:55:27;;;;;;;6.10;3.50;;;;;;;13.01;100.00;93844.72;5135520;27;20253;-76
2021/07/01 06:57:54;;;;;;;8.10;3.87;;;;;;;12.94;100.00;93827.22;5135648;27;20203;-77
2021/07/01 07:00:23;;;;;;;5.57;3.43;;;;;;;13.06;100.00;93835.19;5135445;27;20277;-79
2021/07/01 07:02:49;;;;;;;7.03;3.30;;;;;;;13.11;100.00;93840.59;5135437;27;20197;-78
2021/07/01 07:05:18;;;;;;;8.63;4.13;;;;;;;13.61;100.00;93842.41;5133951;27;20427;-79
2021/07/01 07:07:46;;;;;;;7.25;3.28;;;;;;;13.81;100.00;93844.03;5135333;27;20197;-78
2021/07/01 07:10:15;;;;;;;8.82;3.47;;;;;;;13.76;100.00;93846.50;5135309;27;20651;-79
2021/07/01 07:12:43;;;;;;;7.97;3.80;;;;;;;13.84;100.00;93838.34;5135311;27;20207;-78
2021/07/01 07:15:12;;;;;;;7.20;3.22;;;;;;;13.65;100.00;93851.44;5135253;27;20804;-77
2021/07/01 07:17:41;;;;;;;5.47;3.45;;;;;;;13.48;100.00;93839.91;5135040;27;20651;-78
2021/07/01 07:20:09;;;;;;;5.13;3.33;;;;;;;13.55;100.00;93845.88;5135168;27;20224;-78
2021/07/01 07:22:40;;;;;;;8.32;3.30;;;;;;;13.65;100.00;93848.81;5135140;27;20207;-78
2021/07/01 07:25:09;;;;;;;7.53;3.30;;;;;;;14.17;100.00;93853.72;5135218;27;20312;-79
2021/07/01 07:27:38;;;;;;;4.90;3.30;;;;;;;14.16;100.00;93856.56;5134453;27;20702;-79
2021/07/01 07:30:06;;;;;;;5.25;2.90;;;;;;;14.00;100.00;93858.72;5134021;27;20667;-77
2021/07/01 07:32:38;;;;;;;3.28;2.60;;;;;;;14.16;100.00;93852.09;5135015;27;20211;-77
2021/07/01 07:35:05;;;;;;;6.03;2.72;;;;;;;14.47;100.00;93860.00;5134737;27;20660;-78
2021/07/01 07:37:32;;;;;;;4.97;2.83;;;;;;;13.94;100.00;93857.00;5134752;27;20208;-78
2021/07/01 07:40:02;;;;;;;5.80;3.22;;;;;;;14.13;100.00;93851.75;5134701;27;20227;-79
2021/07/01 07:42:29;;;;;;;7.22;3.15;;;;;;;14.22;100.00;93850.41;5134700;27;20658;-78
2021/07/01 07:44:59;;;;;;;4.88;3.03;;;;;;;13.96;100.00;93847.09;5134838;27;20678;-78
2021/07/01 07:47:29;;;;;;;6.13;3.10;;;;;;;13.96;100.00;93846.28;5134811;27;20223;-79
2021/07/01 07:49:56;;;;;;;4.40;2.78;;;;;;;13.96;100.00;93843.66;5134703;27;20224;-76
2021/07/01 07:52:23;;;;;;;9.48;3.72;;;;;;;14.27;100.00;93855.78;5134591;27;20205;-78
2021/07/01 07:54:54;;;;;;;6.35;2.97;;;;;;;14.09;100.00;93853.19;5134465;27;20201;-77
2021/07/01 07:57:27;;;;;;;6.32;2.92;;;;;;;13.56;100.00;93850.13;5134452;27;20625;-77
2021/07/01 07:59:55;;;;;;;6.03;3.70;;;;;;;13.35;100.00;93850.53;5134490;27;20201;-77
2021/07/01 08:02:32;;;;;;;4.65;3.00;;;;;;;13.12;100.00;93846.63;5134093;27;20201;-78
2021/07/01 08:05:00;;;;;;;5.53;3.70;;;;;;;13.40;100.00;93842.81;5134147;27;20287;-78
2021/07/01 08:07:28;;;;;;;5.40;3.42;;;;;;;13.26;100.00;93844.72;5133838;27;20193;-78
2021/07/01 08:09:55;;;;;;;7.50;3.67;;;;;;;13.37;100.00;93843.25;5134392;27;20224;-78
2021/07/01 08:12:23;;;;;;;5.97;3.60;;;;;;;13.48;100.00;93845.94;5134243;27;20193;-77
2021/07/01 08:14:51;;;;;;;5.22;3.17;;;;;;;13.21;100.00;93850.59;5134202;27;20279;-76
2021/07/01 08:17:17;;;;;;;5.30;3.63;;;;;;;13.33;100.00;93838.41;5134201;27;20223;-80
2021/07/01 08:19:46;;;;;;;13.10;3.65;;;;;;;13.54;100.00;93843.47;5133975;27;20205;-77
2021/07/01 08:22:13;;;;;;;5.15;3.30;;;;;;;13.74;100.00;93844.09;5133733;27;20240;-78
2021/07/01 08:24:40;;;;;;;4.72;3.15;;;;;;;13.85;100.00;93839.94;5134152;27;20658;-78
2021/07/01 08:27:08;;;;;;;13.00;2.80;;;;;;;14.24;100.00;93848.38;5133958;27;20324;-80
2021/07/01 08:29:36;;;;;;;4.25;3.05;;;;;;;14.29;100.00;93850.31;5134113;27;20648;-77
2021/07/01 08:32:05;;;;;;;5.75;3.35;;;;;;;13.88;100.00;93850.00;5133920;27;20201;-79
2021/07/01 08:34:37;;;;;;;7.57;4.20;;;;;;;13.71;100.00;93859.47;5133850;27;20243;-78
2021/07/01 08:37:03;;;;;;;5.13;2.40;;;;;;;13.75;100.00;93850.94;5134223;27;20203;-79
2021/07/01 08:39:33;;;;;;;6.63;3.13;;;;;;;13.94;100.00;93853.56;5133746;28;20229;-78
2021/07/01 08:42:02;;;;;;;3.80;2.80;;;;;;;13.95;100.00;93857.81;5133898;28;20247;-79
2021/07/01 08:44:32;;;;;;;6.60;3.30;;;;;;;14.19;100.00;93861.38;5133883;28;20193;-78
2021/07/01 08:47:11;;;;;;;4.20;2.72;;;;;;;14.51;100.00;93861.97;5133837;28;20253;-77
2021/07/01 08:49:51;;;;;;;4.72;2.60;;;;;;;14.79;100.00;93871.13;5133827;28;20736;-78
2021/07/01 08:52:22;;;;;;;5.13;3.00;;;;;;;14.82;100.00;93872.50;5133818;28;20196;-77
2021/07/01 08:54:52;;;;;;;3.70;2.40;;;;;;;14.41;100.00;93878.25;5133928;28;20208;-79
2021/07/01 08:57:26;;;;;;;5.25;3.08;;;;;;;14.65;100.00;93874.97;5133798;28;20257;-78
2021/07/01 09:00:00;;;;;;;6.18;3.22;;;;;;;14.64;100.00;93878.59;5133542;28;20207;-78
2021/07/01 09:02:33;;;;;;;6.65;3.05;;;;;;;14.80;100.00;93868.28;5133621;28;20258;-79
2021/07/01 09:05:10;;;;;;;3.47;2.40;;;;;;;14.46;100.00;93876.81;5133927;28;20211;-78
2021/07/01 09:07:38;;;;;;;5.00;2.80;;;;;;;13.83;100.00;93879.50;5133650;28;20196;-78
2021/07/01 09:10:10;;;;;;;5.78;2.55;;;;;;;14.03;100.00;93884.56;5133292;28;20201;-78
2021/07/01 09:12:42;;;;;;;4.70;2.80;;;;;;;13.99;100.00;93883.41;5133393;28;20575;-76
2021/07/01 09:15:10;;;;;;;5.55;2.72;;;;;;;13.95;100.00;93884.84;5133705;28;20208;-78
2021/07/01 09:17:47;;;;;;;3.85;2.70;;;;;;;13.93;100.00;93886.09;5135854;27;20654;-76
2021/07/01 09:20:20;;;;;;;4.93;2.90;;;;;;;13.81;100.00;93891.25;5137561;27;20261;-77
2021/07/01 09:22:47;;;;;;;4.70;2.60;;;;;;;13.70;100.00;93890.13;5137378;27;20204;-77
2021/07/01 09:25:15;;;;;;;4.35;2.70;;;;;;;13.65;100.00;93879.50;5137543;27;20224;-77
2021/07/01 09:27:46;;;;;;;5.28;2.85;;;;;;;13.72;100.00;93882.06;5137367;27;20233;-77
2021/07/01 09:30:17;;;;;;;3.25;2.30;;;;;;;13.83;100.00;93894.47;5137339;27;20302;-77
2021/07/01 09:32:49;;;;;;;5.75;2.40;;;;;;;13.74;100.00;93890.50;5136853;27;20192;-77
2021/07/01 09:35:16;;;;;;;4.43;2.65;;;;;;;13.98;100.00;93883.63;5116561;28;20670;-78
2021/07/01 09:37:44;;;;;;;3.38;2.47;;;;;;;14.01;100.00;93897.09;5116699;28;20201;-77
2021/07/01 09:40:13;;;;;;;4.20;2.80;;;;;;;13.72;100.00;93897.81;5116604;28;20208;-79
2021/07/01 09:42:41;;;;;;;3.60;2.78;;;;;;;13.71;100.00;93896.22;5116107;28;20225;-77
2021/07/01 09:45:12;;;;;;;4.60;2.75;;;;;;;13.70;100.00;93890.13;5116426;28;20208;-77
2021/07/01 09:47:43;;;;;;;4.20;2.78;;;;;;;13.91;100.00;93898.63;5116247;28;20352;-78
2021/07/01 09:50:14;;;;;;;4.70;2.95;;;;;;;14.16;100.00;93903.81;5116297;28;20668;-76
2021/07/01 09:52:42;;;;;;;5.07;2.95;;;;;;;14.14;100.00;93897.97;5116510;28;20229;-78
2021/07/01 09:55:11;;;;;;;5.60;2.67;;;;;;;14.19;100.00;93903.38;5116173;28;20676;-78
2021/07/01 09:57:47;;;;;;;3.22;2.45;;;;;;;14.14;100.00;93905.84;5115968;28;20202;-77
2021/07/01 10:00:15;;;;;;;4.00;2.28;;;;;;;14.05;100.00;93906.16;5116141;28;20244;-78
2021/07/01 10:02:42;;;;;;;5.22;2.42;;;;;;;14.12;100.00;93907.88;5116195;28;20229;-77
2021/07/01 10:05:24;;;;;;;3.90;2.60;;;;;;;14.16;100.00;93909.88;5116246;28;20603;-78
2021/07/01 10:07:52;;;;;;;5.13;2.67;;;;;;;14.11;100.00;93914.19;5115925;28;20205;-77
2021/07/01 10:10:20;;;;;;;2.95;2.35;;;;;;;13.52;100.00;93904.03;5115855;28;20660;-77
2021/07/01 10:12:52;;;;;;;4.45;2.53;;;;;;;13.77;100.00;93906.66;5116044;28;20205;-78
2021/07/01 10:15:30;;;;;;;3.63;2.20;;;;;;;14.33;100.00;93896.94;5116018;28;20201;-78
2021/07/01 10:18:08;;;;;;;4.88;2.38;;;;;;;15.17;100.00;93893.63;5116036;28;20201;-78
2021/07/01 10:20:37;;;;;;;5.10;2.28;;;;;;;15.59;100.00;93890.13;5115863;28;20288;-78
2021/07/01 10:23:17;;;;;;;3.17;2.15;;;;;;;15.65;100.00;93889.22;5115648;28;20288;-79
2021/07/01 10:25:45;;;;;;;3.05;1.95;;;;;;;15.95;100.00;93898.84;5115807;28;20285;-79
2021/07/01 10:28:12;;;;;;;2.90;2.20;;;;;;;16.46;97.39;93897.28;5115111;28;20247;-77
2021/07/01 10:30:41;;;;;;;2.78;1.98;;;;;;;17.05;97.65;93893.63;5115396;28;20587;-78
2021/07/01 10:33:23;;;;;;;3.38;2.00;;;;;;;16.14;93.97;93897.69;5115568;28;20247;-78
2021/07/01 10:35:50;;;;;;;5.78;2.58;;;;;;;15.16;99.16;93895.44;5115657;28;20205;-79
2021/07/01 10:38:19;;;;;;;3.60;2.40;;;;;;;15.65;100.00;93890.00;5115536;28;20201;-78
2021/07/01 10:40:49;;;;;;;4.35;2.38;;;;;;;15.89;98.60;93895.31;5115168;28;20212;-77
2021/07/01 10:43:18;;;;;;;2.38;2.15;;;;;;;15.45;98.88;93887.72;5115386;28;20197;-78
2021/07/01 10:46:02;;;;;;;3.35;2.10;;;;;;;15.64;100.00;93887.63;5115201;28;20288;-77
2021/07/01 10:48:31;;;;;;;3.10;2.10;;;;;;;15.78;100.00;93886.38;5115320;28;20651;-79
2021/07/01 10:51:07;;;;;;;7.85;2.45;;;;;;;15.94;100.00;93887.53;5115374;28;20652;-78
2021/07/01 10:53:40;;;;;;;5.15;2.30;;;;;;;15.52;100.00;93884.97;5115254;28;20201;-79
2021/07/01 10:56:25;;;;;;;6.85;2.33;;;;;;;15.32;100.00;93886.13;5115081;28;20193;-79
2021/07/01 10:58:55;;;;;;;3.15;2.15;;;;;;;15.57;100.00;93884.28;5115183;28;20251;-78
2021/07/01 11:01:23;;;;;;;4.43;2.50;;;;;;;15.46;100.00;93893.78;5114939;28;20221;-78
2021/07/01 11:04:04;;;;;;;3.40;2.45;;;;;;;15.20;100.00;93892.38;5114960;28;20258;-79
2021/07/01 11:06:31;;;;;;;3.03;2.13;;;;;;;15.20;100.00;93893.16;5114757;28;20667;-78
2021/07/01 11:09:01;;;;;;;3.55;2.25;;;;;;;15.03;100.00;93887.75;5114710;28;20208;-78
2021/07/01 11:11:31;;;;;;;4.40;2.40;;;;;;;15.22;100.00;93893.75;5114908;28;20197;-78
2021/07/01 11:13:59;;;;;;;2.95;2.10;;;;;;;15.11;100.00;93894.53;5114786;28;20197;-77
2021/07/01 11:16:33;;;;;;;3.45;1.90;;;;;;;14.57;100.00;93897.03;5114694;28;20194;-77
2021/07/01 11:19:00;;;;;;;10.05;2.60;;;;;;;14.40;100.00;93896.88;5114742;28;20292;-76
2021/07/01 11:21:30;;;;;;;4.35;2.42;;;;;;;14.32;100.00;93903.25;5114350;28;20222;-78
2021/07/01 11:24:13;;;;;;;3.08;2.10;;;;;;;14.20;100.00;93894.47;5114676;28;20291;-78
2021/07/01 11:26:42;;;;;;;3.58;2.30;;;;;;;14.30;100.00;93897.38;5114897;28;20212;-79
2021/07/01 11:29:09;;;;;;;3.67;2.10;;;;;;;14.37;100.00;93890.25;5073720;28;20203;-79